»·PEaware :: AAL1524 KSNA-KLAS

AAL1524 :: KSNA-KLAS

FLIGHT INFORMATION

Flight Status: Arrived
Operator:
American Airlines
More flights by this operator :: More flights under this callsign
Pilot: Matteo S. (9898)
Aircraft: BOEING 737-800
(B738)
More flights by this aircraft type
Origin: KSNA John Wayne-Orange Co
United States
Destination: KLAS McCarran Intl
United States
More flights between these airports :: More routes between these airports
Route: +MUSEL8 DAG MISEN KEPEC6
File this flight plan on PilotEdge
Remarks:
Altitude:
(Current/Filed)
31,000ft
Speed:
(Current/Filed)
450kts
Departed: 16-Feb-18 07:12 PM
Arrived: 16-Feb-18 08:15 PM
Distance/Time
Traveled:
197nm/1:03
Distance/Time
To Go:
Arrived

Flight Plot

Page will automatically refresh every two minutes.

Flight plan parsing failed; only flown route is shown


Map Options




Map Legend


Flown Route
Filed Route
Departure Airport
Arrival Airport
Navaid (VOR, NDB)
Fix

Horizontal Profiles

Position Reports

Time Latitude Longitude Heading Altitude Ground
Speed
16-Feb-18 18:17 33.677556 -117.863482 117 64ft 0kts
16-Feb-18 18:18 33.677556 -117.863482 117 64ft 0kts
16-Feb-18 18:19 33.677556 -117.863482 117 64ft 0kts
16-Feb-18 18:20 33.677556 -117.863482 117 64ft 0kts
16-Feb-18 18:21 33.677556 -117.863482 117 64ft 0kts
16-Feb-18 18:22 33.677556 -117.863482 117 64ft 0kts
16-Feb-18 18:23 33.677556 -117.863482 117 64ft 0kts
16-Feb-18 18:24 33.677556 -117.863482 117 64ft 0kts
16-Feb-18 18:25 33.677556 -117.863482 117 64ft 0kts
16-Feb-18 18:26 33.677556 -117.863482 117 64ft 0kts
16-Feb-18 18:27 33.677556 -117.863482 117 64ft 0kts
16-Feb-18 18:28 33.677556 -117.863482 117 64ft 0kts
16-Feb-18 18:29 33.677556 -117.863482 117 64ft 0kts
16-Feb-18 18:30 33.677556 -117.863482 117 64ft 0kts
16-Feb-18 18:31 33.677556 -117.863482 117 64ft 0kts
16-Feb-18 18:32 33.677556 -117.863482 117 64ft 0kts
16-Feb-18 18:33 33.677556 -117.863482 117 64ft 0kts
16-Feb-18 18:34 33.677556 -117.863482 117 64ft 0kts
16-Feb-18 18:35 33.677556 -117.863482 117 64ft 0kts
16-Feb-18 18:36 33.677556 -117.863482 117 64ft 0kts
16-Feb-18 18:37 33.677670 -117.864070 70 64ft 2kts
16-Feb-18 18:38 33.677430 -117.864375 26 64ft 0kts
16-Feb-18 18:39 33.677430 -117.864375 26 64ft 0kts
16-Feb-18 18:40 33.677435 -117.864372 26 64ft 0kts
16-Feb-18 18:41 33.678709 -117.863587 28 64ft 8kts
16-Feb-18 18:42 33.679207 -117.863259 28 64ft 0kts
16-Feb-18 18:43 33.679207 -117.863259 28 64ft 0kts
16-Feb-18 18:44 33.679421 -117.863118 28 64ft 0kts
16-Feb-18 18:45 33.679421 -117.863118 28 64ft 0kts
16-Feb-18 18:46 33.679448 -117.863100 28 64ft 0kts
16-Feb-18 18:47 33.679448 -117.863100 28 64ft 0kts
16-Feb-18 18:48 33.679448 -117.863100 28 64ft 0kts
16-Feb-18 18:49 33.679448 -117.863100 28 64ft 0kts
16-Feb-18 18:50 33.679448 -117.863100 28 64ft 0kts
16-Feb-18 18:51 33.679448 -117.863100 28 64ft 0kts
16-Feb-18 18:52 33.679448 -117.863100 28 64ft 0kts
16-Feb-18 18:53 33.679448 -117.863100 28 64ft 0kts
16-Feb-18 18:54 33.679448 -117.863100 28 64ft 0kts
16-Feb-18 18:55 33.679448 -117.863100 28 64ft 0kts
16-Feb-18 18:56 33.679506 -117.863062 28 64ft 1kts
16-Feb-18 18:57 33.680100 -117.862681 19 64ft 2kts
16-Feb-18 18:58 33.680382 -117.862705 334 64ft 0kts
16-Feb-18 18:59 33.680394 -117.862712 333 64ft 0kts
16-Feb-18 19:00 33.680454 -117.862754 326 64ft 0kts
16-Feb-18 19:01 33.680560 -117.862889 301 64ft 0kts
16-Feb-18 19:02 33.680560 -117.862889 301 64ft 0kts
16-Feb-18 19:03 33.680643 -117.863057 299 64ft 0kts
16-Feb-18 19:04 33.680681 -117.863137 299 64ft 0kts
16-Feb-18 19:05 33.680681 -117.863137 299 64ft 0kts
16-Feb-18 19:06 33.680681 -117.863137 299 64ft 0kts
16-Feb-18 19:07 33.680681 -117.863137 299 64ft 0kts
16-Feb-18 19:08 33.680695 -117.863167 299 64ft 0kts
16-Feb-18 19:09 33.681152 -117.864208 297 64ft 0kts
16-Feb-18 19:10 33.681152 -117.864208 297 64ft 0kts
16-Feb-18 19:11 33.681152 -117.864208 297 64ft 0kts
16-Feb-18 19:12 33.681315 -117.864582 297 64ft 2kts
16-Feb-18 19:13 33.681423 -117.865110 249 64ft 1kts
16-Feb-18 19:14 33.681303 -117.865272 212 64ft 0kts
16-Feb-18 19:15 33.681303 -117.865272 212 64ft 0kts
16-Feb-18 19:16 33.681303 -117.865272 212 64ft 0kts
16-Feb-18 19:17 33.681303 -117.865272 212 64ft 0kts
16-Feb-18 19:18 33.681303 -117.865272 212 64ft 0kts
16-Feb-18 19:19 33.669950 -117.872410 209 82ft 154kts
16-Feb-18 19:20 33.621442 -117.886448 189 2979ft 206kts
16-Feb-18 19:21 33.552097 -117.895898 188 5092ft 271kts
16-Feb-18 19:22 33.482556 -117.920263 232 5512ft 261kts
16-Feb-18 19:23 33.463834 -118.006411 261 7136ft 278kts
16-Feb-18 19:24 33.452107 -118.097248 262 9460ft 279kts
16-Feb-18 19:25 33.436526 -118.197511 264 11330ft 348kts
16-Feb-18 19:26 33.485458 -118.288055 339 14541ft 351kts
16-Feb-18 19:27 33.577575 -118.268091 36 17164ft 358kts
16-Feb-18 19:28 33.653786 -118.189986 39 17763ft 369kts
16-Feb-18 19:29 33.732449 -118.107988 42 20836ft 388kts
16-Feb-18 19:30 33.818483 -118.022012 38 23148ft 422kts
16-Feb-18 19:31 33.914661 -117.935721 35 25699ft 442kts
16-Feb-18 19:32 34.012889 -117.846668 34 28330ft 451kts
16-Feb-18 19:33 34.108739 -117.748431 47 30282ft 473kts
16-Feb-18 19:34 34.195309 -117.629710 46 31155ft 471kts
16-Feb-18 19:35 34.281293 -117.513280 46 31185ft 466kts
16-Feb-18 19:36 34.367719 -117.396024 46 31186ft 466kts
16-Feb-18 19:37 34.438783 -117.299338 46 31182ft 466kts
16-Feb-18 19:38 34.539112 -117.162349 46 31182ft 466kts
16-Feb-18 19:39 34.610710 -117.064244 46 31183ft 466kts
16-Feb-18 19:40 34.696109 -116.946842 46 31158ft 466kts
16-Feb-18 19:41 34.781661 -116.828846 46 31157ft 465kts
16-Feb-18 19:42 34.866131 -116.710048 53 31148ft 467kts
16-Feb-18 19:43 34.911418 -116.561000 71 28943ft 469kts
16-Feb-18 19:44 34.936487 -116.406646 81 27520ft 470kts
16-Feb-18 19:45 34.950697 -116.249049 85 27470ft 474kts
16-Feb-18 19:46 34.932220 -116.089935 86 27337ft 475kts
16-Feb-18 19:47 34.973669 -115.947189 59 25291ft 429kts
16-Feb-18 19:48 35.028017 -115.821082 59 24183ft 417kts
16-Feb-18 19:49 35.083802 -115.694139 58 22389ft 431kts
16-Feb-18 19:50 35.144575 -115.572120 58 20414ft 416kts
16-Feb-18 19:51 35.206330 -115.460352 58 20157ft 394kts
16-Feb-18 19:52 35.266595 -115.349106 61 20155ft 393kts
16-Feb-18 19:53 35.343099 -115.258119 20 20157ft 407kts
16-Feb-18 19:54 35.451744 -115.282427 323 19943ft 421kts
16-Feb-18 19:55 35.497743 -115.404262 268 18345ft 400kts
16-Feb-18 19:56 35.464733 -115.528741 251 16742ft 375kts
16-Feb-18 19:57 35.427977 -115.647676 251 15993ft 372kts
16-Feb-18 19:58 35.395669 -115.752528 251 15978ft 348kts
16-Feb-18 19:59 35.363204 -115.856457 251 15993ft 325kts
16-Feb-18 20:00 35.332357 -115.960831 253 15992ft 325kts
16-Feb-18 20:01 35.359666 -116.045248 353 16012ft 301kts
16-Feb-18 20:02 35.439892 -115.996711 33 15990ft 336kts
16-Feb-18 20:03 35.509755 -115.921849 47 15991ft 337kts
16-Feb-18 20:04 35.570135 -115.833986 48 15990ft 337kts
16-Feb-18 20:05 35.630361 -115.746070 48 15950ft 338kts
16-Feb-18 20:06 35.689016 -115.661619 44 13597ft 299kts
16-Feb-18 20:07 35.744841 -115.591309 42 12990ft 283kts
16-Feb-18 20:08 35.819853 -115.571319 2 12989ft 286kts
16-Feb-18 20:09 35.877093 -115.514551 69 13187ft 289kts
16-Feb-18 20:10 35.900047 -115.418153 71 13983ft 297kts
16-Feb-18 20:11 35.917466 -115.320337 76 13100ft 289kts
16-Feb-18 20:12 35.932747 -115.225032 76 11715ft 278kts
16-Feb-18 20:13 35.947321 -115.133715 76 10659ft 269kts
16-Feb-18 20:14 35.962099 -115.041147 78 9557ft 277kts
16-Feb-18 20:15 35.976837 -114.948931 74 8322ft 272kts
16-Feb-18 20:16 36.031028 -114.905557 2 6908ft 238kts
16-Feb-18 20:17 36.088039 -114.922023 287 5350ft 220kts
16-Feb-18 20:18 36.075135 -114.991875 252 4202ft 203kts
16-Feb-18 20:19 36.073950 -115.057778 269 3018ft 176kts
16-Feb-18 20:20 36.073659 -115.109429 269 2376ft 138kts
16-Feb-18 20:21 36.073674 -115.149745 271 2149ft 52kts
16-Feb-18 20:22 36.075398 -115.156247 310 2149ft 12kts
16-Feb-18 20:23 36.077522 -115.158242 357 2149ft 5kts
16-Feb-18 20:24 36.078059 -115.156027 89 2149ft 14kts
16-Feb-18 20:25 36.078022 -115.151239 91 2149ft 13kts
16-Feb-18 20:26 36.078232 -115.148233 4 2149ft 2kts
16-Feb-18 20:27 36.080012 -115.148092 55 2149ft 3kts
16-Feb-18 20:28 36.080327 -115.147257 64 2149ft 0kts
16-Feb-18 20:29 36.080327 -115.147257 64 2149ft 0kts
16-Feb-18 20:30 36.080327 -115.147257 64 2149ft 0kts
16-Feb-18 20:31 36.080327 -115.147257 64 2149ft 0kts
16-Feb-18 20:32 36.080327 -115.147257 64 2149ft 0kts
16-Feb-18 20:33 36.080327 -115.147257 64 2149ft 0kts

Navigation Log

Ident Type
Flight plan parsing failed, navigation log unavailable